KTYQ Airport Information

Runway Information
Runway 18 Length 5500 ft width 100 ft
Elevation 922 ft Threshold 0 ft Heading 179
Runway 36 Length 5500 ft Width 100 ft
Elevation 922 ft Threshold 157 ft Heading 359
Airport Frequencies
Type A/D Name APP/DEP Frequency 124.65 MHZ
Type AWOS Name AWOS 3 Frequency 120.725 MHZ
Type UNIC Name CTAF/UNICO Frequency 123.05 MHZ
Airport Navaids
Airport Weather Information & NOTAM
ADDS - METARS form results

(1944 UTC 20 October 2021)
Data provider http://aviationweather.gov/metar/data/
 
METAR text: KTYQ 201935Z AUTO 17009G14KT 10SM CLR 22/10 A3007 RMK AO2 T02220097
Conditions at: KTYQ (INDIANAPOLIS EXC, IN, US) observed 1935 UTC 20 October 2021
Temperature: 22.2°C (72°F)
Dewpoint: 9.7°C (49°F) [RH = 45%]
Pressure (altimeter): 30.07 inches Hg (1018.4 mb)
Winds: from the S (170 degrees) at 10 MPH (9 knots; 4.6 m/s)
gusting to 16 MPH (14 knots; 7.2 m/s)
Visibility: 10 or more miles (16+ km)
Ceiling: at least 12,000 feet AGL
Clouds: sky clear below 12,000 feet AGL
Weather: automated observation with no human augmentation;
there may or may not be significant weather present at this time

METAR text: KTYQ 201915Z AUTO 18008KT 10SM CLR 22/10 A3008 RMK AO2 T02230100
Conditions at: KTYQ (INDIANAPOLIS EXC, IN, US) observed 1915 UTC 20 October 2021
Temperature: 22.3°C (72°F)
Dewpoint: 10.0°C (50°F) [RH = 46%]
Pressure (altimeter): 30.08 inches Hg (1018.7 mb)
Winds: from the S (180 degrees) at 9 MPH (8 knots; 4.1 m/s)
Visibility: 10 or more miles (16+ km)
Ceiling: at least 12,000 feet AGL
Clouds: sky clear below 12,000 feet AGL
Weather: automated observation with no human augmentation;
there may or may not be significant weather present at this time

METAR text: KTYQ 201855Z AUTO 18009G15KT 10SM CLR 22/10 A3009 RMK AO2 T02210104
Conditions at: KTYQ (INDIANAPOLIS EXC, IN, US) observed 1855 UTC 20 October 2021
Temperature: 22.1°C (72°F)
Dewpoint: 10.4°C (51°F) [RH = 47%]
Pressure (altimeter): 30.09 inches Hg (1019.0 mb)
Winds: from the S (180 degrees) at 10 MPH (9 knots; 4.6 m/s)
gusting to 17 MPH (15 knots; 7.7 m/s)
Visibility: 10 or more miles (16+ km)
Ceiling: at least 12,000 feet AGL
Clouds: sky clear below 12,000 feet AGL
Weather: automated observation with no human augmentation;
there may or may not be significant weather present at this time